sensor_id;sensor_type;location;lat;lon;timestamp;pressure;altitude;pressure_sealevel;temperature;humidity
55932;BME280;41837;55.700;37.984;2023-06-04T00:00:05;100240.75;;;5.79;100.00
55932;BME280;41837;55.700;37.984;2023-06-04T00:02:33;100244.16;;;5.85;100.00
55932;BME280;41837;55.700;37.984;2023-06-04T00:05:00;100243.28;;;5.84;100.00
55932;BME280;41837;55.700;37.984;2023-06-04T00:07:26;100239.81;;;5.84;100.00
55932;BME280;41837;55.700;37.984;2023-06-04T00:09:53;100243.19;;;5.90;100.00
55932;BME280;41837;55.700;37.984;2023-06-04T00:12:19;100244.06;;;5.91;100.00
55932;BME280;41837;55.700;37.984;2023-06-04T00:14:45;100243.19;;;5.90;100.00
55932;BME280;41837;55.700;37.984;2023-06-04T00:17:12;100251.06;;;5.86;100.00
55932;BME280;41837;55.700;37.984;2023-06-04T00:19:39;100254.59;;;5.78;100.00
55932;BME280;41837;55.700;37.984;2023-06-04T00:22:07;100265.88;;;5.77;100.00
55932;BME280;41837;55.700;37.984;2023-06-04T00:24:34;100251.09;;;5.84;100.00
55932;BME280;41837;55.700;37.984;2023-06-04T00:27:01;100263.34;;;5.73;100.00
55932;BME280;41837;55.700;37.984;2023-06-04T00:29:28;100264.13;;;5.78;100.00
55932;BME280;41837;55.700;37.984;2023-06-04T00:31:53;100261.50;;;5.81;100.00
55932;BME280;41837;55.700;37.984;2023-06-04T00:34:20;100264.19;;;5.75;100.00
55932;BME280;41837;55.700;37.984;2023-06-04T00:36:47;100267.66;;;5.74;100.00
55932;BME280;41837;55.700;37.984;2023-06-04T00:39:13;100268.72;;;5.62;100.00
55932;BME280;41837;55.700;37.984;2023-06-04T00:41:39;100272.19;;;5.59;100.00
55932;BME280;41837;55.700;37.984;2023-06-04T00:44:06;100272.13;;;5.64;100.00
55932;BME280;41837;55.700;37.984;2023-06-04T00:46:32;100277.34;;;5.61;100.00
55932;BME280;41837;55.700;37.984;2023-06-04T00:48:59;100266.09;;;5.62;100.00
55932;BME280;41837;55.700;37.984;2023-06-04T00:51:26;100269.75;;;5.49;100.00
55932;BME280;41837;55.700;37.984;2023-06-04T00:53:53;100277.53;;;5.49;100.00
55932;BME280;41837;55.700;37.984;2023-06-04T00:56:20;100289.50;;;5.59;100.00
55932;BME280;41837;55.700;37.984;2023-06-04T00:58:46;100287.19;;;5.36;100.00
55932;BME280;41837;55.700;37.984;2023-06-04T01:01:31;100292.25;;;5.47;100.00
55932;BME280;41837;55.700;37.984;2023-06-04T01:04:00;100292.91;;;5.61;100.00
55932;BME280;41837;55.700;37.984;2023-06-04T01:06:39;100285.56;;;5.92;100.00
55932;BME280;41837;55.700;37.984;2023-06-04T01:09:07;100287.19;;;6.52;100.00
55932;BME280;41837;55.700;37.984;2023-06-04T01:11:34;100286.31;;;6.53;100.00
55932;BME280;41837;55.700;37.984;2023-06-04T01:14:02;100285.03;;;6.76;100.00
55932;BME280;41837;55.700;37.984;2023-06-04T01:16:35;100292.06;;;7.16;100.00
55932;BME280;41837;55.700;37.984;2023-06-04T01:19:15;100290.31;;;7.17;100.00
55932;BME280;41837;55.700;37.984;2023-06-04T01:21:50;100297.09;;;7.24;100.00
55932;BME280;41837;55.700;37.984;2023-06-04T01:24:21;100287.44;;;7.70;100.00
55932;BME280;41837;55.700;37.984;2023-06-04T01:26:49;100277.88;;;8.06;100.00
55932;BME280;41837;55.700;37.984;2023-06-04T01:29:17;100287.25;;;8.51;100.00
55932;BME280;41837;55.700;37.984;2023-06-04T01:31:44;100275.72;;;8.91;100.00
55932;BME280;41837;55.700;37.984;2023-06-04T01:34:10;100284.94;;;9.04;100.00
55932;BME280;41837;55.700;37.984;2023-06-04T01:36:36;100283.56;;;9.22;99.77
55932;BME280;41837;55.700;37.984;2023-06-04T01:39:02;100288.38;;;9.36;100.00
55932;BME280;41837;55.700;37.984;2023-06-04T01:41:29;100290.28;;;9.87;97.00
55932;BME280;41837;55.700;37.984;2023-06-04T01:43:55;100285.34;;;9.50;98.41
55932;BME280;41837;55.700;37.984;2023-06-04T01:46:22;100288.53;;;9.60;98.60
55932;BME280;41837;55.700;37.984;2023-06-04T01:48:48;100293.28;;;9.75;97.26
55932;BME280;41837;55.700;37.984;2023-06-04T01:51:14;100289.00;;;10.01;95.08
55932;BME280;41837;55.700;37.984;2023-06-04T01:53:40;100291.25;;;10.40;94.21
55932;BME280;41837;55.700;37.984;2023-06-04T01:56:07;100296.09;;;10.24;94.37
55932;BME280;41837;55.700;37.984;2023-06-04T01:58:34;100289.03;;;11.03;91.99
55932;BME280;41837;55.700;37.984;2023-06-04T02:01:01;100294.66;;;10.67;90.10
55932;BME280;41837;55.700;37.984;2023-06-04T02:03:29;100294.91;;;11.10;88.32
55932;BME280;41837;55.700;37.984;2023-06-04T02:06:04;100298.41;;;10.85;85.76
55932;BME280;41837;55.700;37.984;2023-06-04T02:08:34;100298.56;;;10.80;86.12
55932;BME280;41837;55.700;37.984;2023-06-04T02:11:01;100302.28;;;10.48;85.06
55932;BME280;41837;55.700;37.984;2023-06-04T02:13:28;100309.56;;;10.90;84.73
55932;BME280;41837;55.700;37.984;2023-06-04T02:15:54;100307.72;;;11.17;82.79
55932;BME280;41837;55.700;37.984;2023-06-04T02:18:21;100305.03;;;10.95;82.56
55932;BME280;41837;55.700;37.984;2023-06-04T02:21:07;100309.13;;;11.50;80.59
55932;BME280;41837;55.700;37.984;2023-06-04T02:23:33;100309.31;;;11.45;80.13
55932;BME280;41837;55.700;37.984;2023-06-04T02:26:00;100302.63;;;12.06;77.34
55932;BME280;41837;55.700;37.984;2023-06-04T02:28:26;100315.44;;;11.91;76.65
55932;BME280;41837;55.700;37.984;2023-06-04T02:30:53;100311.13;;;11.89;77.37
55932;BME280;41837;55.700;37.984;2023-06-04T02:33:19;100322.06;;;11.54;77.21
55932;BME280;41837;55.700;37.984;2023-06-04T02:35:47;100326.81;;;12.12;75.38
55932;BME280;41837;55.700;37.984;2023-06-04T02:38:14;100323.41;;;12.74;74.79
55932;BME280;41837;55.700;37.984;2023-06-04T02:40:42;100325.25;;;12.51;72.80
55932;BME280;41837;55.700;37.984;2023-06-04T02:43:08;100334.06;;;13.10;72.11
55932;BME280;41837;55.700;37.984;2023-06-04T02:45:34;100330.50;;;12.51;72.75
55932;BME280;41837;55.700;37.984;2023-06-04T02:48:01;100341.13;;;13.29;70.93
55932;BME280;41837;55.700;37.984;2023-06-04T02:50:27;100347.41;;;12.22;72.75
55932;BME280;41837;55.700;37.984;2023-06-04T02:52:54;100337.38;;;13.15;69.41
55932;BME280;41837;55.700;37.984;2023-06-04T02:55:21;100352.47;;;12.69;70.83
55932;BME280;41837;55.700;37.984;2023-06-04T02:57:49;100344.81;;;13.83;69.47
55932;BME280;41837;55.700;37.984;2023-06-04T03:00:18;100350.69;;;13.50;68.35
55932;BME280;41837;55.700;37.984;2023-06-04T03:02:46;100360.59;;;13.24;70.16
55932;BME280;41837;55.700;37.984;2023-06-04T03:05:15;100352.75;;;13.43;68.90
55932;BME280;41837;55.700;37.984;2023-06-04T03:07:44;100354.03;;;13.73;68.79
55932;BME280;41837;55.700;37.984;2023-06-04T03:10:12;100364.63;;;13.90;66.73
55932;BME280;41837;55.700;37.984;2023-06-04T03:12:38;100359.69;;;13.25;67.21
55932;BME280;41837;55.700;37.984;2023-06-04T03:15:05;100366.41;;;13.71;66.58
55932;BME280;41837;55.700;37.984;2023-06-04T03:17:33;100369.09;;;13.69;66.78
55932;BME280;41837;55.700;37.984;2023-06-04T03:19:59;100375.88;;;13.35;67.95
55932;BME280;41837;55.700;37.984;2023-06-04T03:22:26;100385.28;;;13.98;67.83
55932;BME280;41837;55.700;37.984;2023-06-04T03:24:54;100364.03;;;14.03;66.95
55932;BME280;41837;55.700;37.984;2023-06-04T03:27:20;100383.38;;;14.38;65.69
55932;BME280;41837;55.700;37.984;2023-06-04T03:29:47;100380.28;;;14.47;64.19
55932;BME280;41837;55.700;37.984;2023-06-04T03:32:15;100392.78;;;15.14;61.53
55932;BME280;41837;55.700;37.984;2023-06-04T03:34:43;100394.28;;;14.84;60.48
55932;BME280;41837;55.700;37.984;2023-06-04T03:37:10;100395.31;;;14.82;63.67
55932;BME280;41837;55.700;37.984;2023-06-04T03:39:37;100399.72;;;14.99;62.08
55932;BME280;41837;55.700;37.984;2023-06-04T03:42:06;100402.66;;;14.75;62.25
55932;BME280;41837;55.700;37.984;2023-06-04T03:44:33;100407.66;;;14.62;61.79
55932;BME280;41837;55.700;37.984;2023-06-04T03:46:59;100409.53;;;15.13;61.06
55932;BME280;41837;55.700;37.984;2023-06-04T03:49:28;100418.03;;;15.00;63.41
55932;BME280;41837;55.700;37.984;2023-06-04T03:51:54;100416.47;;;15.64;62.80
55932;BME280;41837;55.700;37.984;2023-06-04T03:54:22;100413.69;;;15.67;60.74
55932;BME280;41837;55.700;37.984;2023-06-04T03:56:50;100416.38;;;16.15;58.37
55932;BME280;41837;55.700;37.984;2023-06-04T03:59:16;100421.28;;;15.40;59.46
55932;BME280;41837;55.700;37.984;2023-06-04T04:01:43;100422.06;;;15.25;59.37
55932;BME280;41837;55.700;37.984;2023-06-04T04:04:09;100420.16;;;16.11;56.58
55932;BME280;41837;55.700;37.984;2023-06-04T04:06:36;100421.28;;;15.40;59.71
55932;BME280;41837;55.700;37.984;2023-06-04T04:09:04;100421.22;;;16.07;56.60
55932;BME280;41837;55.700;37.984;2023-06-04T04:11:32;100420.31;;;15.59;57.81
55932;BME280;41837;55.700;37.984;2023-06-04T04:13:59;100423.53;;;15.97;56.35
55932;BME280;41837;55.700;37.984;2023-06-04T04:16:27;100423.09;;;16.05;56.76
55932;BME280;41837;55.700;37.984;2023-06-04T04:18:54;100424.81;;;16.38;57.95
55932;BME280;41837;55.700;37.984;2023-06-04T04:21:21;100431.63;;;15.94;56.46
55932;BME280;41837;55.700;37.984;2023-06-04T04:23:49;100423.97;;;16.21;56.05
55932;BME280;41837;55.700;37.984;2023-06-04T04:26:18;100427.59;;;16.97;54.55
55932;BME280;41837;55.700;37.984;2023-06-04T04:28:48;100428.63;;;16.48;53.82
55932;BME280;41837;55.700;37.984;2023-06-04T04:31:14;100433.06;;;17.67;54.66
55932;BME280;41837;55.700;37.984;2023-06-04T04:33:42;100435.47;;;17.13;54.66
55932;BME280;41837;55.700;37.984;2023-06-04T04:36:11;100433.16;;;17.23;54.26
55932;BME280;41837;55.700;37.984;2023-06-04T04:38:48;100435.31;;;17.30;52.52
55932;BME280;41837;55.700;37.984;2023-06-04T04:41:24;100432.03;;;16.96;53.72
55932;BME280;41837;55.700;37.984;2023-06-04T04:43:53;100436.59;;;16.63;54.07
55932;BME280;41837;55.700;37.984;2023-06-04T04:46:23;100426.75;;;16.96;54.12
55932;BME280;41837;55.700;37.984;2023-06-04T04:48:51;100434.53;;;17.14;52.47
55932;BME280;41837;55.700;37.984;2023-06-04T04:51:18;100428.44;;;17.71;51.57
55932;BME280;41837;55.700;37.984;2023-06-04T04:53:44;100447.47;;;16.88;54.84
55932;BME280;41837;55.700;37.984;2023-06-04T04:56:11;100449.63;;;16.66;52.33
55932;BME280;41837;55.700;37.984;2023-06-04T04:58:41;100451.97;;;17.47;51.33
55932;BME280;41837;55.700;37.984;2023-06-04T05:01:08;100444.50;;;17.09;54.82
55932;BME280;41837;55.700;37.984;2023-06-04T05:03:35;100446.25;;;17.24;52.78
55932;BME280;41837;55.700;37.984;2023-06-04T05:06:02;100444.13;;;18.03;51.81
55932;BME280;41837;55.700;37.984;2023-06-04T05:08:28;100442.78;;;18.10;50.02
55932;BME280;41837;55.700;37.984;2023-06-04T05:10:54;100449.22;;;17.77;51.69
55932;BME280;41837;55.700;37.984;2023-06-04T05:13:20;100444.22;;;17.87;51.19
55932;BME280;41837;55.700;37.984;2023-06-04T05:15:53;100454.78;;;17.29;51.31
55932;BME280;41837;55.700;37.984;2023-06-04T05:18:24;100458.22;;;17.89;50.79
55932;BME280;41837;55.700;37.984;2023-06-04T05:20:58;100463.94;;;17.38;50.29
55932;BME280;41837;55.700;37.984;2023-06-04T05:23:27;100455.47;;;17.17;49.37
55932;BME280;41837;55.700;37.984;2023-06-04T05:25:53;100451.31;;;17.86;49.32
55932;BME280;41837;55.700;37.984;2023-06-04T05:28:32;100445.47;;;18.64;48.54
55932;BME280;41837;55.700;37.984;2023-06-04T05:31:03;100452.72;;;17.92;48.66
55932;BME280;41837;55.700;37.984;2023-06-04T05:33:33;100459.63;;;17.95;48.42
55932;BME280;41837;55.700;37.984;2023-06-04T05:36:04;100455.00;;;17.98;48.63
55932;BME280;41837;55.700;37.984;2023-06-04T05:38:37;100447.81;;;18.15;47.91
55932;BME280;41837;55.700;37.984;2023-06-04T05:41:08;100447.81;;;18.42;48.14
55932;BME280;41837;55.700;37.984;2023-06-04T05:43:36;100443.09;;;18.60;47.78
55932;BME280;41837;55.700;37.984;2023-06-04T05:46:02;100454.19;;;18.25;47.86
55932;BME280;41837;55.700;37.984;2023-06-04T05:48:28;100468.03;;;17.87;49.47
55932;BME280;41837;55.700;37.984;2023-06-04T05:51:14;100457.72;;;19.20;46.34
55932;BME280;41837;55.700;37.984;2023-06-04T05:53:40;100456.44;;;18.58;47.11
55932;BME280;41837;55.700;37.984;2023-06-04T05:56:06;100461.97;;;18.55;46.25
55932;BME280;41837;55.700;37.984;2023-06-04T05:58:33;100453.00;;;18.16;45.30
55932;BME280;41837;55.700;37.984;2023-06-04T06:01:01;100453.91;;;17.29;47.71
55932;BME280;41837;55.700;37.984;2023-06-04T06:03:28;100455.00;;;18.13;47.23
55932;BME280;41837;55.700;37.984;2023-06-04T06:05:56;100453.38;;;18.79;47.27
55932;BME280;41837;55.700;37.984;2023-06-04T06:08:23;100456.31;;;19.14;46.84
55932;BME280;41837;55.700;37.984;2023-06-04T06:10:49;100452.81;;;18.47;45.64
55932;BME280;41837;55.700;37.984;2023-06-04T06:13:16;100455.13;;;18.93;47.82
55932;BME280;41837;55.700;37.984;2023-06-04T06:15:42;100440.41;;;19.14;46.08
55932;BME280;41837;55.700;37.984;2023-06-04T06:18:09;100445.28;;;18.68;46.42
55932;BME280;41837;55.700;37.984;2023-06-04T06:20:35;100455.00;;;18.13;45.29
55932;BME280;41837;55.700;37.984;2023-06-04T06:23:08;100457.59;;;16.80;47.89
55932;BME280;41837;55.700;37.984;2023-06-04T06:25:38;100475.03;;;17.14;48.17
55932;BME280;41837;55.700;37.984;2023-06-04T06:28:12;100470.41;;;16.56;48.67
55932;BME280;41837;55.700;37.984;2023-06-04T06:30:39;100463.28;;;17.63;46.94
55932;BME280;41837;55.700;37.984;2023-06-04T06:33:06;100459.31;;;18.55;45.25
55932;BME280;41837;55.700;37.984;2023-06-04T06:35:32;100463.41;;;19.01;43.00
55932;BME280;41837;55.700;37.984;2023-06-04T06:37:58;100464.38;;;18.31;45.05
55932;BME280;41837;55.700;37.984;2023-06-04T06:40:24;100467.16;;;18.30;44.75
55932;BME280;41837;55.700;37.984;2023-06-04T06:42:51;100454.41;;;19.29;43.91
55932;BME280;41837;55.700;37.984;2023-06-04T06:45:18;100463.59;;;18.98;42.92
55932;BME280;41837;55.700;37.984;2023-06-04T06:47:45;100454.63;;;19.65;43.42
55932;BME280;41837;55.700;37.984;2023-06-04T06:50:11;100461.44;;;18.63;45.40
55932;BME280;41837;55.700;37.984;2023-06-04T06:52:38;100454.53;;;19.92;42.15
55932;BME280;41837;55.700;37.984;2023-06-04T06:55:05;100457.50;;;19.36;43.98
55932;BME280;41837;55.700;37.984;2023-06-04T06:57:32;100445.84;;;19.64;41.47
55932;BME280;41837;55.700;37.984;2023-06-04T06:59:59;100454.22;;;19.97;42.57
55932;BME280;41837;55.700;37.984;2023-06-04T07:02:26;100460.88;;;19.12;42.07
55932;BME280;41837;55.700;37.984;2023-06-04T07:04:52;100467.75;;;16.88;45.47
55932;BME280;41837;55.700;37.984;2023-06-04T07:07:19;100469.03;;;18.55;43.43
55932;BME280;41837;55.700;37.984;2023-06-04T07:09:45;100460.91;;;18.58;43.96
55932;BME280;41837;55.700;37.984;2023-06-04T07:12:24;100459.94;;;19.65;41.83
55932;BME280;41837;55.700;37.984;2023-06-04T07:14:50;100462.91;;;20.36;40.04
55932;BME280;41837;55.700;37.984;2023-06-04T07:17:16;100473.09;;;18.33;42.54
55932;BME280;41837;55.700;37.984;2023-06-04T07:19:43;100476.34;;;17.81;44.72
55932;BME280;41837;55.700;37.984;2023-06-04T07:22:09;100476.44;;;17.20;45.45
55932;BME280;41837;55.700;37.984;2023-06-04T07:24:36;100480.69;;;15.97;47.95
55932;BME280;41837;55.700;37.984;2023-06-04T07:27:12;100477.88;;;16.00;48.20
55932;BME280;41837;55.700;37.984;2023-06-04T07:29:39;100476.88;;;17.57;46.19
55932;BME280;41837;55.700;37.984;2023-06-04T07:32:06;100469.81;;;18.57;43.87
55932;BME280;41837;55.700;37.984;2023-06-04T07:34:32;100469.81;;;19.50;41.87
55932;BME280;41837;55.700;37.984;2023-06-04T07:36:59;100474.84;;;18.74;43.52
55932;BME280;41837;55.700;37.984;2023-06-04T07:39:25;100474.53;;;18.10;44.30
55932;BME280;41837;55.700;37.984;2023-06-04T07:41:51;100486.34;;;16.54;46.50
55932;BME280;41837;55.700;37.984;2023-06-04T07:44:17;100486.09;;;16.43;47.91
55932;BME280;41837;55.700;37.984;2023-06-04T07:46:43;100488.03;;;16.08;48.81
55932;BME280;41837;55.700;37.984;2023-06-04T07:49:09;100480.63;;;17.53;45.28
55932;BME280;41837;55.700;37.984;2023-06-04T07:51:35;100469.59;;;18.87;43.05
55932;BME280;41837;55.700;37.984;2023-06-04T07:54:03;100471.09;;;18.37;44.74
55932;BME280;41837;55.700;37.984;2023-06-04T07:56:29;100468.34;;;18.38;43.37
55932;BME280;41837;55.700;37.984;2023-06-04T07:58:55;100478.91;;;17.38;45.52
55932;BME280;41837;55.700;37.984;2023-06-04T08:01:22;100458.94;;;18.05;44.30
55932;BME280;41837;55.700;37.984;2023-06-04T08:03:50;100463.50;;;18.72;44.86
55932;BME280;41837;55.700;37.984;2023-06-04T08:06:16;100468.13;;;18.00;44.03
55932;BME280;41837;55.700;37.984;2023-06-04T08:08:43;100471.06;;;18.10;43.61
55932;BME280;41837;55.700;37.984;2023-06-04T08:11:15;100470.06;;;17.82;44.00
55932;BME280;41837;55.700;37.984;2023-06-04T08:13:41;100479.06;;;17.06;45.79
55932;BME280;41837;55.700;37.984;2023-06-04T08:16:08;100481.66;;;16.44;46.11
55932;BME280;41837;55.700;37.984;2023-06-04T08:18:56;100477.22;;;16.12;45.42
55932;BME280;41837;55.700;37.984;2023-06-04T08:21:34;100484.94;;;15.66;45.05
55932;BME280;41837;55.700;37.984;2023-06-04T08:24:08;100479.66;;;15.33;46.60
55932;BME280;41837;55.700;37.984;2023-06-04T08:26:55;100486.13;;;15.25;47.53
55932;BME280;41837;55.700;37.984;2023-06-04T08:29:31;100483.66;;;14.87;48.15
55932;BME280;41837;55.700;37.984;2023-06-04T08:32:02;100477.69;;;15.01;48.96
55932;BME280;41837;55.700;37.984;2023-06-04T08:34:43;100488.78;;;15.08;48.57
55932;BME280;41837;55.700;37.984;2023-06-04T08:37:11;100488.69;;;15.09;47.24
55932;BME280;41837;55.700;37.984;2023-06-04T08:39:37;100487.91;;;15.42;47.82
55932;BME280;41837;55.700;37.984;2023-06-04T08:42:07;100477.78;;;15.35;47.75
55932;BME280;41837;55.700;37.984;2023-06-04T08:44:35;100482.28;;;15.33;48.48
55932;BME280;41837;55.700;37.984;2023-06-04T08:47:03;100483.28;;;15.30;48.23
55932;BME280;41837;55.700;37.984;2023-06-04T08:49:34;100476.31;;;15.80;47.29
55932;BME280;41837;55.700;37.984;2023-06-04T08:52:04;100481.31;;;16.34;44.92
55932;BME280;41837;55.700;37.984;2023-06-04T08:54:32;100480.25;;;17.00;43.29
55932;BME280;41837;55.700;37.984;2023-06-04T08:57:00;100480.25;;;17.00;43.72
55932;BME280;41837;55.700;37.984;2023-06-04T08:59:26;100478.28;;;16.41;45.29
55932;BME280;41837;55.700;37.984;2023-06-04T09:01:54;100485.31;;;16.89;45.14
55932;BME280;41837;55.700;37.984;2023-06-04T09:04:21;100480.97;;;16.72;44.39
55932;BME280;41837;55.700;37.984;2023-06-04T09:06:48;100487.97;;;16.09;44.77
55932;BME280;41837;55.700;37.984;2023-06-04T09:09:16;100489.19;;;15.69;45.63
55932;BME280;41837;55.700;37.984;2023-06-04T09:11:52;100489.00;;;15.03;44.95
55932;BME280;41837;55.700;37.984;2023-06-04T09:14:19;100475.81;;;14.49;47.31
55932;BME280;41837;55.700;37.984;2023-06-04T09:16:47;100492.09;;;14.20;47.54
55932;BME280;41837;55.700;37.984;2023-06-04T09:19:18;100494.44;;;14.26;48.22
55932;BME280;41837;55.700;37.984;2023-06-04T09:24:19;100493.44;;;14.28;48.66
55932;BME280;41837;55.700;37.984;2023-06-04T09:26:46;100505.53;;;13.74;48.32
55932;BME280;41837;55.700;37.984;2023-06-04T09:29:14;100497.41;;;13.99;49.12
55932;BME280;41837;55.700;37.984;2023-06-04T09:31:41;100501.81;;;14.36;50.03
55932;BME280;41837;55.700;37.984;2023-06-04T09:34:10;100503.81;;;14.69;48.72
55932;BME280;41837;55.700;37.984;2023-06-04T09:36:36;100500.09;;;14.35;48.88
55932;BME280;41837;55.700;37.984;2023-06-04T09:39:03;100503.13;;;14.28;48.74
55932;BME280;41837;55.700;37.984;2023-06-04T09:41:31;100504.59;;;14.33;48.33
55932;BME280;41837;55.700;37.984;2023-06-04T09:44:02;100515.47;;;14.64;47.65
55932;BME280;41837;55.700;37.984;2023-06-04T09:46:32;100502.25;;;14.65;47.61
55932;BME280;41837;55.700;37.984;2023-06-04T09:49:05;100499.94;;;14.58;46.30
55932;BME280;41837;55.700;37.984;2023-06-04T09:51:32;100489.81;;;14.86;46.83
55932;BME280;41837;55.700;37.984;2023-06-04T09:54:00;100480.09;;;15.06;47.78
55932;BME280;41837;55.700;37.984;2023-06-04T09:56:27;100484.91;;;15.33;45.94
55932;BME280;41837;55.700;37.984;2023-06-04T09:58:56;100492.41;;;15.23;46.44
55932;BME280;41837;55.700;37.984;2023-06-04T10:01:25;100490.00;;;15.01;45.47
55932;BME280;41837;55.700;37.984;2023-06-04T10:03:53;100490.69;;;14.87;46.28
55932;BME280;41837;55.700;37.984;2023-06-04T10:06:20;100495.06;;;15.05;46.01
55932;BME280;41837;55.700;37.984;2023-06-04T10:08:54;100494.72;;;15.11;46.81
55932;BME280;41837;55.700;37.984;2023-06-04T10:11:32;100489.97;;;15.71;45.88
55932;BME280;41837;55.700;37.984;2023-06-04T10:14:22;100499.13;;;15.63;47.75
55932;BME280;41837;55.700;37.984;2023-06-04T10:16:51;100501.84;;;15.27;46.22
55932;BME280;41837;55.700;37.984;2023-06-04T10:19:18;100496.50;;;15.46;45.84
55932;BME280;41837;55.700;37.984;2023-06-04T10:21:45;100497.28;;;15.48;44.67
55932;BME280;41837;55.700;37.984;2023-06-04T10:24:14;100503.09;;;15.02;45.34
55932;BME280;41837;55.700;37.984;2023-06-04T10:26:42;100494.44;;;15.18;44.31
55932;BME280;41837;55.700;37.984;2023-06-04T10:29:08;100492.47;;;15.39;43.48
55932;BME280;41837;55.700;37.984;2023-06-04T10:31:37;100485.44;;;15.90;42.44
55932;BME280;41837;55.700;37.984;2023-06-04T10:34:03;100496.78;;;16.08;43.27
55932;BME280;41837;55.700;37.984;2023-06-04T10:36:30;100491.06;;;16.00;43.18
55932;BME280;41837;55.700;37.984;2023-06-04T10:38:56;100487.13;;;16.56;42.34
55932;BME280;41837;55.700;37.984;2023-06-04T10:41:23;100492.53;;;15.72;43.38
55932;BME280;41837;55.700;37.984;2023-06-04T10:43:51;100492.03;;;16.63;42.00
55932;BME280;41837;55.700;37.984;2023-06-04T10:46:42;100488.56;;;16.30;43.60
55932;BME280;41837;55.700;37.984;2023-06-04T10:49:10;100479.91;;;15.95;43.64
55932;BME280;41837;55.700;37.984;2023-06-04T10:51:38;100482.41;;;16.77;43.05
55932;BME280;41837;55.700;37.984;2023-06-04T10:54:04;100475.09;;;17.13;43.69
55932;BME280;41837;55.700;37.984;2023-06-04T10:56:33;100485.13;;;17.22;42.29
55932;BME280;41837;55.700;37.984;2023-06-04T10:59:01;100474.97;;;17.00;43.23
55932;BME280;41837;55.700;37.984;2023-06-04T11:01:39;100483.88;;;16.35;43.08
55932;BME280;41837;55.700;37.984;2023-06-04T11:04:06;100480.06;;;15.76;43.41
55932;BME280;41837;55.700;37.984;2023-06-04T11:06:33;100462.31;;;15.62;44.63
55932;BME280;41837;55.700;37.984;2023-06-04T11:09:03;100491.44;;;16.10;43.42
55932;BME280;41837;55.700;37.984;2023-06-04T11:11:30;100476.22;;;15.48;44.09
55932;BME280;41837;55.700;37.984;2023-06-04T11:14:12;100488.63;;;16.13;43.02
55932;BME280;41837;55.700;37.984;2023-06-04T11:16:43;100476.06;;;16.50;43.79
55932;BME280;41837;55.700;37.984;2023-06-04T11:19:09;100477.41;;;16.41;43.06
55932;BME280;41837;55.700;37.984;2023-06-04T11:21:36;100482.59;;;16.27;43.35
55932;BME280;41837;55.700;37.984;2023-06-04T11:24:03;100479.47;;;15.87;41.45
55932;BME280;41837;55.700;37.984;2023-06-04T11:26:35;100477.97;;;15.98;42.30
55932;BME280;41837;55.700;37.984;2023-06-04T11:29:06;100488.50;;;15.65;41.68
55932;BME280;41837;55.700;37.984;2023-06-04T11:31:43;100480.31;;;15.54;41.63
55932;BME280;41837;55.700;37.984;2023-06-04T11:34:11;100478.88;;;15.81;41.48
55932;BME280;41837;55.700;37.984;2023-06-04T11:36:48;100493.19;;;15.93;42.16
55932;BME280;41837;55.700;37.984;2023-06-04T11:39:16;100495.63;;;15.63;42.35
55932;BME280;41837;55.700;37.984;2023-06-04T11:41:43;100497.50;;;15.61;42.94
55932;BME280;41837;55.700;37.984;2023-06-04T11:44:09;100499.41;;;15.75;43.50
55932;BME280;41837;55.700;37.984;2023-06-04T11:46:39;100497.09;;;15.69;44.75
55932;BME280;41837;55.700;37.984;2023-06-04T11:49:06;100489.19;;;15.86;42.92
55932;BME280;41837;55.700;37.984;2023-06-04T11:51:33;100503.38;;;15.66;44.11
55932;BME280;41837;55.700;37.984;2023-06-04T11:53:59;100495.72;;;15.79;44.06
55932;BME280;41837;55.700;37.984;2023-06-04T11:56:25;100494.75;;;16.13;42.67
55932;BME280;41837;55.700;37.984;2023-06-04T11:58:54;100493.69;;;16.17;43.14
55932;BME280;41837;55.700;37.984;2023-06-04T12:01:21;100498.53;;;16.57;44.09
55932;BME280;41837;55.700;37.984;2023-06-04T12:03:49;100489.72;;;16.72;42.41
55932;BME280;41837;55.700;37.984;2023-06-04T12:06:19;100500.31;;;16.56;43.17
55932;BME280;41837;55.700;37.984;2023-06-04T12:08:50;100496.38;;;16.64;42.53
55932;BME280;41837;55.700;37.984;2023-06-04T12:11:29;100489.59;;;16.44;42.22
55932;BME280;41837;55.700;37.984;2023-06-04T12:14:07;100495.31;;;15.87;43.89
55932;BME280;41837;55.700;37.984;2023-06-04T12:16:33;100486.88;;;15.62;44.74
55932;BME280;41837;55.700;37.984;2023-06-04T12:19:10;100497.91;;;15.36;45.85
55932;BME280;41837;55.700;37.984;2023-06-04T12:21:38;100501.72;;;15.13;44.87
55932;BME280;41837;55.700;37.984;2023-06-04T12:26:35;100498.13;;;14.79;45.85
55932;BME280;41837;55.700;37.984;2023-06-04T12:29:11;100496.25;;;14.98;45.58
55932;BME280;41837;55.700;37.984;2023-06-04T12:31:39;100511.06;;;14.64;44.77
55932;BME280;41837;55.700;37.984;2023-06-04T12:34:17;100501.72;;;14.57;45.42
55932;BME280;41837;55.700;37.984;2023-06-04T12:36:44;100499.16;;;14.94;45.58
55932;BME280;41837;55.700;37.984;2023-06-04T12:39:11;100500.47;;;15.02;44.82
55932;BME280;41837;55.700;37.984;2023-06-04T12:41:37;100494.44;;;15.35;45.36
55932;BME280;41837;55.700;37.984;2023-06-04T12:44:03;100492.34;;;16.09;44.14
55932;BME280;41837;55.700;37.984;2023-06-04T12:46:29;100493.50;;;16.52;43.11
55932;BME280;41837;55.700;37.984;2023-06-04T12:48:55;100490.44;;;15.79;43.13
55932;BME280;41837;55.700;37.984;2023-06-04T12:51:22;100489.63;;;15.43;43.50